createdAt,value
2023-03-28T09:00:17.850Z,77.43
2023-03-28T09:01:16.035Z,76.98
2023-03-28T09:02:16.082Z,76.67
2023-03-28T09:03:16.164Z,76.87
2023-03-28T09:04:16.275Z,76.64
2023-03-28T09:05:23.169Z,74.98
2023-03-28T09:06:17.014Z,75.39
2023-03-28T09:07:15.999Z,74.26
2023-03-28T09:08:19.174Z,73.74
2023-03-28T09:09:15.984Z,73.54
2023-03-28T09:10:15.919Z,73.43
2023-03-28T09:11:16.109Z,73.33
2023-03-28T09:12:16.151Z,73.95
2023-03-28T09:13:16.026Z,74.36
2023-03-28T09:14:16.083Z,74.36
2023-03-28T09:15:15.981Z,73.22
2023-03-28T09:16:15.863Z,72.50
2023-03-28T09:17:15.926Z,72.40
2023-03-28T09:18:15.891Z,72.09
2023-03-28T09:19:15.847Z,72.40
2023-03-28T09:20:15.810Z,72.71
2023-03-28T09:21:15.803Z,71.67
2023-03-28T09:22:16.362Z,71.26
2023-03-28T09:23:15.836Z,72.30
2023-03-28T09:24:15.748Z,72.99
2023-03-28T09:25:15.769Z,72.99
2023-03-28T09:26:15.799Z,73.19
2023-03-28T09:27:15.739Z,72.26
2023-03-28T09:28:15.759Z,72.36
2023-03-28T09:29:15.804Z,71.30
2023-03-28T09:30:15.680Z,70.68
2023-03-28T09:31:15.664Z,69.37
2023-03-28T09:32:15.757Z,68.54
2023-03-28T09:33:15.647Z,68.03
2023-03-28T09:34:15.595Z,68.03
2023-03-28T09:35:15.739Z,68.54
2023-03-28T09:36:15.720Z,69.27
2023-03-28T09:37:15.660Z,67.72
2023-03-28T09:38:15.634Z,65.86
2023-03-28T09:39:15.581Z,64.73
2023-03-28T09:40:15.605Z,63.90
2023-03-28T09:41:15.552Z,64.31
2023-03-28T09:42:15.563Z,64.62
2023-03-28T09:43:15.624Z,64.80
2023-03-28T09:44:15.461Z,65.52
2023-03-28T09:45:15.543Z,65.31
2023-03-28T09:46:15.529Z,64.46
2023-03-28T09:47:15.449Z,62.81
2023-03-28T09:48:17.625Z,63.22
2023-03-28T09:49:15.449Z,63.84
2023-03-28T09:50:15.436Z,63.74
2023-03-28T09:51:15.412Z,62.92
2023-03-28T09:52:15.374Z,62.92
2023-03-28T09:53:15.388Z,64.67
2023-03-28T09:54:15.388Z,63.32
2023-03-28T09:55:15.372Z,64.87
2023-03-28T09:56:15.378Z,66.21
2023-03-28T09:57:15.410Z,66.83
2023-03-28T09:58:15.334Z,66.11
2023-03-28T09:59:15.326Z,66.11
2023-03-28T10:00:15.280Z,66.83
2023-03-28T10:01:15.311Z,67.03
2023-03-28T10:02:15.248Z,66.01
2023-03-28T10:03:15.278Z,66.11
2023-03-28T10:04:15.251Z,66.94
2023-03-28T10:05:15.215Z,66.52
2023-03-28T10:06:15.227Z,66.52
2023-03-28T10:07:15.220Z,66.21
2023-03-28T10:08:15.193Z,66.21
2023-03-28T10:09:15.152Z,65.80
2023-03-28T10:10:15.222Z,64.74
2023-03-28T10:11:15.162Z,64.12
2023-03-28T10:12:15.120Z,64.12
2023-03-28T10:13:15.138Z,65.05
2023-03-28T10:14:15.123Z,64.09
2023-03-28T10:15:15.107Z,60.59
2023-03-28T10:16:15.131Z,59.97
2023-03-28T10:17:15.103Z,59.04
2023-03-28T10:18:15.145Z,58.84
2023-03-28T10:19:15.071Z,60.17
2023-03-28T10:20:15.066Z,61.52
2023-03-28T10:21:15.076Z,59.56
2023-03-28T10:22:15.038Z,59.66
2023-03-28T10:23:15.027Z,58.40
2023-03-28T10:24:14.991Z,58.50
2023-03-28T10:25:14.971Z,58.11
2023-03-28T10:26:14.995Z,58.01
2023-03-28T10:27:14.919Z,59.04
2023-03-28T10:28:14.984Z,59.63
2023-03-28T10:29:14.944Z,60.15
2023-03-28T10:30:14.907Z,58.70
2023-03-28T10:31:14.929Z,59.33
2023-03-28T10:32:14.911Z,59.33
2023-03-28T10:33:14.844Z,58.81
2023-03-28T10:34:15.214Z,60.25
2023-03-28T10:35:14.820Z,60.12
2023-03-28T10:36:14.892Z,60.33
2023-03-28T10:37:14.829Z,60.63
2023-03-28T10:38:14.814Z,59.19
2023-03-28T10:39:15.038Z,59.40
2023-03-28T10:40:14.907Z,58.34
2023-03-28T10:41:14.756Z,57.93
2023-03-28T10:42:14.795Z,57.62
2023-03-28T10:43:14.712Z,56.08
2023-03-28T10:44:14.827Z,56.59
2023-03-28T10:45:14.707Z,56.80
2023-03-28T10:46:14.743Z,55.15
2023-03-28T10:47:14.709Z,54.94
2023-03-28T10:48:14.675Z,55.57
2023-03-28T10:49:14.681Z,55.66
2023-03-28T10:50:14.718Z,55.36
2023-03-28T10:51:14.661Z,55.74
2023-03-28T10:52:14.605Z,54.43
2023-03-28T10:53:14.591Z,54.53
2023-03-28T10:54:14.590Z,54.33
2023-03-28T10:55:14.585Z,53.81
2023-03-28T10:56:14.621Z,54.72
2023-03-28T10:57:14.606Z,55.23
2023-03-28T10:58:14.539Z,55.23
2023-03-28T10:59:14.575Z,55.85
2023-03-28T11:00:14.564Z,56.26
2023-03-28T11:01:14.510Z,55.85
2023-03-28T11:02:14.529Z,55.02
2023-03-28T11:03:14.568Z,56.77
2023-03-28T11:04:14.513Z,57.50
2023-03-28T11:05:14.487Z,56.46
2023-03-28T11:06:14.450Z,56.36
2023-03-28T11:07:14.437Z,58.21
2023-03-28T11:08:14.416Z,57.90
2023-03-28T11:09:14.411Z,58.52
2023-03-28T11:10:14.459Z,58.11
2023-03-28T11:11:14.397Z,59.34
2023-03-28T11:12:23.101Z,56.36
2023-03-28T11:13:15.361Z,57.50
2023-03-28T11:14:14.363Z,57.90
2023-03-28T11:15:14.360Z,57.50
2023-03-28T11:16:14.363Z,57.50
2023-03-28T11:17:14.309Z,57.70
2023-03-28T11:18:14.314Z,56.57
2023-03-28T11:19:14.299Z,56.87
2023-03-28T11:20:14.377Z,57.70
2023-03-28T11:21:14.241Z,58.31
2023-03-28T11:22:14.224Z,56.46
2023-03-28T11:23:14.207Z,57.70
2023-03-28T11:24:14.208Z,56.87
2023-03-28T11:25:14.199Z,55.10
2023-03-28T11:26:14.204Z,55.82
2023-03-28T11:27:16.276Z,55.10
2023-03-28T11:28:14.197Z,53.87
2023-03-28T11:29:14.157Z,54.90
2023-03-28T11:30:14.176Z,53.97
2023-03-28T11:31:14.128Z,54.79
2023-03-28T11:32:14.120Z,55.21
2023-03-28T11:33:14.099Z,55.72
2023-03-28T11:34:14.115Z,55.69
2023-03-28T11:35:14.090Z,54.77
2023-03-28T11:36:14.078Z,55.28
2023-03-28T11:37:14.036Z,55.59
2023-03-28T11:38:14.054Z,55.08
2023-03-28T11:39:14.014Z,53.94
2023-03-28T11:40:14.071Z,54.66
2023-03-28T11:41:13.988Z,55.08
2023-03-28T11:42:13.997Z,54.05
2023-03-28T11:43:13.972Z,54.97
2023-03-28T11:44:14.023Z,53.94
2023-03-28T11:45:13.969Z,55.08
2023-03-28T11:46:13.998Z,55.08
2023-03-28T11:47:13.972Z,54.36
2023-03-28T11:48:13.953Z,55.82
2023-03-28T11:49:13.881Z,54.17
2023-03-28T11:50:13.885Z,54.28
2023-03-28T11:51:13.879Z,55.21
2023-03-28T11:52:13.915Z,53.56
2023-03-28T11:53:13.847Z,53.85
2023-03-28T11:54:13.822Z,54.05
2023-03-28T11:55:15.032Z,53.94
2023-03-28T11:56:13.806Z,54.36
2023-03-28T11:57:13.798Z,55.08
2023-03-28T11:58:13.810Z,55.59
2023-03-28T11:59:13.743Z,54.77
2023-03-28T12:00:26.692Z,55.38
2023-03-28T12:01:14.752Z,53.51
2023-03-28T12:02:13.731Z,53.20
2023-03-28T12:03:13.770Z,54.02
2023-03-28T12:04:13.782Z,54.53
2023-03-28T12:05:13.696Z,54.74
2023-03-28T12:06:13.683Z,54.85
2023-03-28T12:07:13.647Z,54.13
2023-03-28T12:08:13.630Z,54.10
2023-03-28T12:09:13.612Z,53.49
2023-03-28T12:10:13.645Z,55.02
2023-03-28T12:11:13.598Z,55.13
2023-03-28T12:12:13.623Z,53.05
2023-03-28T12:13:13.595Z,53.87
2023-03-28T12:14:13.586Z,54.38
2023-03-28T12:15:13.548Z,52.84
2023-03-28T12:16:14.469Z,52.23
2023-03-28T12:17:13.558Z,50.99
2023-03-28T12:18:13.475Z,52.23
2023-03-28T12:19:13.559Z,51.41
2023-03-28T12:20:13.504Z,52.02
2023-03-28T12:21:13.453Z,53.56
2023-03-28T12:22:13.512Z,51.82
2023-03-28T12:23:13.434Z,51.20
2023-03-28T12:24:13.538Z,50.38
2023-03-28T12:25:13.486Z,50.30
2023-03-28T12:26:13.446Z,52.04
2023-03-28T12:27:13.465Z,49.89
2023-03-28T12:28:14.569Z,51.23
2023-03-28T12:29:15.829Z,51.12
2023-03-28T12:30:14.367Z,51.64
2023-03-28T12:31:13.366Z,51.33
2023-03-28T12:32:13.311Z,51.64
2023-03-28T12:33:13.488Z,52.56
2023-03-28T12:34:13.325Z,51.23
2023-03-28T12:35:13.322Z,50.61
2023-03-28T12:36:13.404Z,50.51
2023-03-28T12:37:13.240Z,49.79
2023-03-28T12:38:13.240Z,51.20
2023-03-28T12:39:13.226Z,51.82
2023-03-28T12:40:13.256Z,51.51
2023-03-28T12:41:13.204Z,52.44
2023-03-28T12:42:13.225Z,51.51
2023-03-28T12:43:13.195Z,50.69
2023-03-28T12:44:13.212Z,50.69
2023-03-28T12:45:13.234Z,51.92
2023-03-28T12:46:13.185Z,52.76
2023-03-28T12:47:13.192Z,52.74
2023-03-28T12:48:13.197Z,53.56
2023-03-28T12:49:13.126Z,53.05
2023-03-28T12:50:13.079Z,52.12
2023-03-28T12:51:13.113Z,52.95
2023-03-28T12:52:13.135Z,51.82
2023-03-28T12:53:13.072Z,52.95
2023-03-28T12:54:13.062Z,51.82
2023-03-28T12:55:13.044Z,52.84
2023-03-28T12:56:13.052Z,52.74
2023-03-28T12:57:17.048Z,51.31
2023-03-28T12:58:13.990Z,52.95
2023-03-28T12:59:13.128Z,52.64
2023-03-28T13:00:12.997Z,52.72
2023-03-28T13:01:12.966Z,52.10
2023-03-28T13:02:12.947Z,51.69
2023-03-28T13:03:12.917Z,50.05
2023-03-28T13:04:12.990Z,50.26
2023-03-28T13:05:15.365Z,50.67
2023-03-28T13:06:12.853Z,51.59
2023-03-28T13:07:12.922Z,50.97
2023-03-28T13:08:12.842Z,52.31
2023-03-28T13:09:12.873Z,52.61
2023-03-28T13:10:12.873Z,52.72
2023-03-28T13:11:12.809Z,53.85
2023-03-28T13:12:12.856Z,52.20
2023-03-28T13:13:12.843Z,52.72
2023-03-28T13:14:12.821Z,53.64
2023-03-28T13:15:12.792Z,53.85
2023-03-28T13:16:12.791Z,54.25
2023-03-28T13:17:12.742Z,54.13
2023-03-28T13:18:12.816Z,54.33
2023-03-28T13:19:12.737Z,54.74
2023-03-28T13:20:12.753Z,52.87
2023-03-28T13:21:12.665Z,54.51
2023-03-28T13:22:12.739Z,54.41
2023-03-28T13:23:12.664Z,53.59
2023-03-28T13:24:12.702Z,55.43
2023-03-28T13:25:13.786Z,54.82
2023-03-28T13:26:12.651Z,52.56
2023-03-28T13:27:12.653Z,55.23
2023-03-28T13:28:12.614Z,52.97
2023-03-28T13:29:12.552Z,53.69
2023-03-28T13:30:12.574Z,53.49
2023-03-28T13:31:12.549Z,53.80
2023-03-28T13:32:12.584Z,54.82
2023-03-28T13:33:12.620Z,55.13
2023-03-28T13:34:12.523Z,53.90
2023-03-28T13:35:12.525Z,53.18
2023-03-28T13:36:12.563Z,53.18
2023-03-28T13:37:12.465Z,54.41
2023-03-28T13:38:12.487Z,53.69
2023-03-28T13:39:12.488Z,54.51
2023-03-28T13:40:12.451Z,54.21
2023-03-28T13:41:12.474Z,52.77
2023-03-28T13:42:12.400Z,53.80
2023-03-28T13:43:12.380Z,54.41
2023-03-28T13:44:12.391Z,54.10
2023-03-28T13:45:12.363Z,53.90
2023-03-28T13:46:12.455Z,54.10
2023-03-28T13:47:12.439Z,52.05
2023-03-28T13:48:13.364Z,51.13
2023-03-28T13:49:12.349Z,51.75
2023-03-28T13:50:12.310Z,51.75
2023-03-28T13:51:12.361Z,52.15
2023-03-28T13:52:12.269Z,51.03
2023-03-28T13:53:12.268Z,51.03
2023-03-28T13:54:12.254Z,52.05
2023-03-28T13:55:12.246Z,51.54
2023-03-28T13:56:12.282Z,52.67
2023-03-28T13:57:12.282Z,52.47
2023-03-28T13:58:12.273Z,51.85
2023-03-28T13:59:12.176Z,52.67
2023-03-28T14:00:12.185Z,51.34
2023-03-28T14:01:12.172Z,50.52
2023-03-28T14:02:12.237Z,51.72
2023-03-28T14:03:12.153Z,52.03
2023-03-28T14:04:12.094Z,51.31
2023-03-28T14:05:12.128Z,52.13
2023-03-28T14:06:12.110Z,51.42
2023-03-28T14:07:12.079Z,52.13
2023-03-28T14:08:12.110Z,50.62
2023-03-28T14:09:12.063Z,51.13
2023-03-28T14:10:12.052Z,51.34
2023-03-28T14:11:12.091Z,51.64
2023-03-28T14:12:12.172Z,52.97
2023-03-28T14:13:12.071Z,52.47
2023-03-28T14:14:12.036Z,53.59
2023-03-28T14:15:12.023Z,53.59
2023-03-28T14:16:12.097Z,53.28
2023-03-28T14:17:12.115Z,53.59
2023-03-28T14:18:11.948Z,53.18
2023-03-28T14:19:12.002Z,53.49
2023-03-28T14:20:11.944Z,52.26
2023-03-28T14:21:11.902Z,49.90
2023-03-28T14:22:11.892Z,52.05
2023-03-28T14:23:11.983Z,51.64
2023-03-28T14:24:11.895Z,50.82
2023-03-28T14:25:11.867Z,52.15
2023-03-28T14:26:11.834Z,52.05
2023-03-28T14:27:13.760Z,49.59
2023-03-28T14:28:11.800Z,51.54
2023-03-28T14:29:11.838Z,51.95
2023-03-28T14:30:11.760Z,52.15
2023-03-28T14:31:11.799Z,51.05
2023-03-28T14:32:11.844Z,51.05
2023-03-28T14:33:14.307Z,52.18
2023-03-28T14:34:11.804Z,52.80
2023-03-28T14:35:11.764Z,53.00
2023-03-28T14:36:11.720Z,52.90
2023-03-28T14:37:11.728Z,52.49
2023-03-28T14:38:11.720Z,53.00
2023-03-28T14:39:13.946Z,53.31
2023-03-28T14:40:11.645Z,52.28
2023-03-28T14:41:11.657Z,52.49
2023-03-28T14:42:11.601Z,53.00
2023-03-28T14:43:11.671Z,53.41
2023-03-28T14:44:11.627Z,54.74
2023-03-28T14:45:13.378Z,54.44
2023-03-28T14:46:11.642Z,53.20
2023-03-28T14:47:11.580Z,53.20
2023-03-28T14:48:11.575Z,53.61
2023-03-28T14:49:11.618Z,52.18
2023-03-28T14:50:11.517Z,52.67
2023-03-28T14:51:11.537Z,53.49
2023-03-28T14:52:11.468Z,53.49
2023-03-28T14:53:11.523Z,51.85
2023-03-28T14:54:11.508Z,52.56
2023-03-28T14:55:11.584Z,50.21
2023-03-28T14:56:11.517Z,50.62
2023-03-28T14:57:11.445Z,51.75
2023-03-28T14:58:11.410Z,51.54
2023-03-28T14:59:11.454Z,52.26
2023-03-28T15:00:11.439Z,52.77
2023-03-28T15:01:11.409Z,52.15
2023-03-28T15:02:11.500Z,51.44
2023-03-28T15:03:11.463Z,50.42
2023-03-28T15:04:11.361Z,51.93
2023-03-28T15:05:11.408Z,51.93
2023-03-28T15:06:11.364Z,50.39
2023-03-28T15:07:11.318Z,51.21
2023-03-28T15:08:11.331Z,51.10
2023-03-28T15:09:11.336Z,51.01
2023-03-28T15:10:11.272Z,50.59
2023-03-28T15:11:11.299Z,49.16
2023-03-28T15:12:11.252Z,50.59
2023-03-28T15:13:11.220Z,49.49
2023-03-28T15:14:11.220Z,49.69
2023-03-28T15:15:11.226Z,50.93
2023-03-28T15:16:11.219Z,51.03
2023-03-28T15:17:11.208Z,50.72
2023-03-28T15:18:11.259Z,50.74
2023-03-28T15:19:11.225Z,50.85
2023-03-28T15:20:11.160Z,50.23
2023-03-28T15:21:11.203Z,50.44
2023-03-28T15:22:11.110Z,51.46
2023-03-28T15:23:11.110Z,50.44
2023-03-28T15:24:11.094Z,51.26
2023-03-28T15:25:11.091Z,51.87
2023-03-28T15:26:11.090Z,51.46
2023-03-28T15:27:11.023Z,52.39
2023-03-28T15:28:11.042Z,52.08
2023-03-28T15:29:11.064Z,52.80
2023-03-28T15:30:11.048Z,53.82
2023-03-28T15:31:11.034Z,53.00
2023-03-28T15:32:10.970Z,52.69
2023-03-28T15:33:10.972Z,53.72
2023-03-28T15:34:10.955Z,51.98
2023-03-28T15:35:12.570Z,53.10
2023-03-28T15:36:10.972Z,53.82
2023-03-28T15:37:10.931Z,53.82
2023-03-28T15:38:10.906Z,54.13
2023-03-28T15:39:10.954Z,53.82
2023-03-28T15:40:10.875Z,54.44
2023-03-28T15:41:10.905Z,53.61
2023-03-28T15:42:10.823Z,54.74
2023-03-28T15:43:10.846Z,53.82
2023-03-28T15:44:10.814Z,54.23
2023-03-28T15:45:11.022Z,52.59
2023-03-28T15:46:11.029Z,51.77
2023-03-28T15:47:10.831Z,52.90
2023-03-28T15:48:10.822Z,52.80
2023-03-28T15:49:10.745Z,52.28
2023-03-28T15:50:10.789Z,53.00
2023-03-28T15:51:10.713Z,53.51
2023-03-28T15:52:10.671Z,54.13
2023-03-28T15:53:10.692Z,53.61
2023-03-28T15:54:20.266Z,53.61
2023-03-28T15:55:11.693Z,53.10
2023-03-28T15:56:10.638Z,53.51
2023-03-28T15:57:10.724Z,53.51
2023-03-28T15:58:10.609Z,53.72
2023-03-28T15:59:10.654Z,51.77
2023-03-28T16:00:10.625Z,51.79
2023-03-28T16:01:10.633Z,52.82
2023-03-28T16:02:10.692Z,53.12
2023-03-28T16:03:10.701Z,53.03
2023-03-28T16:04:10.620Z,53.54
2023-03-28T16:05:10.566Z,53.33
2023-03-28T16:06:11.866Z,53.54
2023-03-28T16:07:10.584Z,53.44
2023-03-28T16:08:10.488Z,53.44
2023-03-28T16:09:10.515Z,53.54
2023-03-28T16:10:10.484Z,54.05
2023-03-28T16:11:10.454Z,53.95
2023-03-28T16:12:10.478Z,55.21
2023-03-28T16:13:10.468Z,54.69
2023-03-28T16:14:10.415Z,54.59
2023-03-28T16:15:10.449Z,55.21
2023-03-28T16:16:10.451Z,54.08
2023-03-28T16:17:11.132Z,54.38
2023-03-28T16:18:10.411Z,54.90
2023-03-28T16:19:10.344Z,55.10
2023-03-28T16:20:10.383Z,55.30
2023-03-28T16:21:10.360Z,55.41
2023-03-28T16:22:10.292Z,53.97
2023-03-28T16:23:10.345Z,54.38
2023-03-28T16:24:10.293Z,53.87
2023-03-28T16:25:10.591Z,54.28
2023-03-28T16:26:10.262Z,53.74
2023-03-28T16:27:10.249Z,53.87
2023-03-28T16:28:10.487Z,54.59
2023-03-28T16:29:10.241Z,54.59
2023-03-28T16:30:10.243Z,55.00
2023-03-28T16:31:10.239Z,53.87
2023-03-28T16:32:10.198Z,53.66
2023-03-28T16:33:10.296Z,53.54
2023-03-28T16:34:10.410Z,54.05
2023-03-28T16:35:10.192Z,54.15
2023-03-28T16:36:10.194Z,52.51
2023-03-28T16:37:10.135Z,53.44
2023-03-28T16:38:10.095Z,54.15
2023-03-28T16:39:10.087Z,54.05
2023-03-28T16:40:10.122Z,55.90
2023-03-28T16:41:10.087Z,56.34
2023-03-28T16:42:10.155Z,55.62
2023-03-28T16:43:10.061Z,55.62
2023-03-28T16:44:10.065Z,55.92
2023-03-28T16:45:10.013Z,55.62
2023-03-28T16:46:12.338Z,55.41
2023-03-28T16:47:09.987Z,54.69
2023-03-28T16:48:09.991Z,55.82
2023-03-28T16:49:10.000Z,56.23
2023-03-28T16:50:09.952Z,56.02
2023-03-28T16:51:09.970Z,54.59
2023-03-28T16:52:09.922Z,55.30
2023-03-28T16:53:09.950Z,55.41
2023-03-28T16:54:09.902Z,55.62
2023-03-28T16:55:09.906Z,56.13
2023-03-28T16:56:09.855Z,55.82
2023-03-28T16:57:09.850Z,55.95
2023-03-28T16:58:09.852Z,55.85
2023-03-28T16:59:09.871Z,55.74
2023-03-28T17:00:09.800Z,56.15
2023-03-28T17:01:09.825Z,56.05
2023-03-28T17:02:09.871Z,56.67
2023-03-28T17:03:09.886Z,56.67
2023-03-28T17:04:09.764Z,55.33
2023-03-28T17:05:09.737Z,54.72
2023-03-28T17:06:09.776Z,55.33
2023-03-28T17:07:09.757Z,55.85
2023-03-28T17:08:09.732Z,56.56
2023-03-28T17:09:09.684Z,55.64
2023-03-28T17:10:09.692Z,56.46
2023-03-28T17:11:09.763Z,55.02
2023-03-28T17:12:09.688Z,55.23
2023-03-28T17:13:09.688Z,55.64
2023-03-28T17:14:09.622Z,55.33
2023-03-28T17:15:09.622Z,56.56
2023-03-28T17:16:09.618Z,56.26
2023-03-28T17:17:09.671Z,55.85
2023-03-28T17:18:09.677Z,56.46
2023-03-28T17:19:09.576Z,56.67
2023-03-28T17:20:09.541Z,56.77
2023-03-28T17:21:09.598Z,56.67
2023-03-28T17:22:09.544Z,55.85
2023-03-28T17:23:09.518Z,55.43
2023-03-28T17:24:09.480Z,55.54
2023-03-28T17:25:09.518Z,55.02
2023-03-28T17:26:09.462Z,55.02
2023-03-28T17:27:09.516Z,55.54
2023-03-28T17:28:09.467Z,55.85
2023-03-28T17:29:09.441Z,56.36
2023-03-28T17:30:09.415Z,55.85
2023-03-28T17:31:09.489Z,55.85
2023-03-28T17:32:09.400Z,55.43
2023-03-28T17:33:09.412Z,55.54
2023-03-28T17:34:09.357Z,55.74
2023-03-28T17:35:09.377Z,55.74
2023-03-28T17:36:09.417Z,55.33
2023-03-28T17:37:09.347Z,55.95
2023-03-28T17:38:09.322Z,55.74
2023-03-28T17:39:09.326Z,55.13
2023-03-28T17:40:09.287Z,56.05
2023-03-28T17:41:09.348Z,56.15
2023-03-28T17:42:09.277Z,55.95
2023-03-28T17:43:09.243Z,55.64
2023-03-28T17:44:09.317Z,56.15
2023-03-28T17:45:09.276Z,56.15
2023-03-28T17:46:09.242Z,55.95
2023-03-28T17:47:09.240Z,55.74
2023-03-28T17:48:09.300Z,55.23
2023-03-28T17:49:09.208Z,54.82
2023-03-28T17:50:09.184Z,54.51
2023-03-28T17:51:09.227Z,53.59
2023-03-28T17:52:09.227Z,54.21
2023-03-28T17:53:09.142Z,54.72
2023-03-28T17:54:09.108Z,54.00
2023-03-28T17:55:09.131Z,54.41
2023-03-28T17:56:09.093Z,53.79
2023-03-28T17:57:09.160Z,54.30
2023-03-28T17:58:09.107Z,54.51
2023-03-28T17:59:09.077Z,54.30
2023-03-28T18:00:09.089Z,54.21
2023-03-28T18:01:09.049Z,54.82
2023-03-28T18:02:09.066Z,54.33
2023-03-28T18:03:09.130Z,54.23
2023-03-28T18:04:09.059Z,54.23
2023-03-28T18:05:08.956Z,53.61
2023-03-28T18:06:08.947Z,54.95
2023-03-28T18:07:16.013Z,54.64
2023-03-28T18:08:09.947Z,54.53
2023-03-28T18:09:08.897Z,54.74
2023-03-28T18:10:08.933Z,54.53
2023-03-28T18:11:08.893Z,55.05
2023-03-28T18:12:08.883Z,55.05
2023-03-28T18:13:08.926Z,55.66
2023-03-28T18:14:08.939Z,56.28
2023-03-28T18:15:08.835Z,55.66
2023-03-28T18:16:08.917Z,56.28
2023-03-28T18:17:08.836Z,55.38
2023-03-28T18:18:08.893Z,56.08
2023-03-28T18:19:08.815Z,56.38
2023-03-28T18:20:08.769Z,56.10
2023-03-28T18:21:08.818Z,56.21
2023-03-28T18:22:08.765Z,56.00
2023-03-28T18:23:08.803Z,56.82
2023-03-28T18:24:08.728Z,56.41
2023-03-28T18:25:08.771Z,55.69
2023-03-28T18:26:08.695Z,56.82
2023-03-28T18:27:08.690Z,56.72
2023-03-28T18:28:08.646Z,56.93
2023-03-28T18:29:08.645Z,56.82
2023-03-28T18:30:08.681Z,56.10
2023-03-28T18:31:08.670Z,56.82
2023-03-28T18:32:08.640Z,57.13
2023-03-28T18:33:08.731Z,57.44
2023-03-28T18:34:08.608Z,57.34
2023-03-28T18:35:08.544Z,58.26
2023-03-28T18:36:08.701Z,58.67
2023-03-28T18:37:08.574Z,57.23
2023-03-28T18:38:08.525Z,59.08
2023-03-28T18:39:08.532Z,60.01
2023-03-28T18:40:08.504Z,60.21
2023-03-28T18:41:08.501Z,60.83
2023-03-28T18:42:08.525Z,62.37
2023-03-28T18:43:08.475Z,62.58
2023-03-28T18:44:08.477Z,62.58
2023-03-28T18:45:08.499Z,63.29
2023-03-28T18:46:08.504Z,63.40
2023-03-28T18:47:08.424Z,62.58
2023-03-28T18:48:08.478Z,64.22
2023-03-28T18:49:08.378Z,63.81
2023-03-28T18:50:08.374Z,64.73
2023-03-28T18:51:08.368Z,65.77
2023-03-28T18:52:08.370Z,64.97
2023-03-28T18:53:08.379Z,64.25
2023-03-28T18:54:08.385Z,64.25
2023-03-28T18:55:08.329Z,63.94
2023-03-28T18:56:08.333Z,63.64
2023-03-28T18:57:08.329Z,63.02
2023-03-28T18:58:08.332Z,63.64
2023-03-28T18:59:08.272Z,63.84
2023-03-28T19:00:08.266Z,63.32
2023-03-28T19:01:08.261Z,63.32
2023-03-28T19:02:08.255Z,63.53
2023-03-28T19:03:08.383Z,63.02
2023-03-28T19:04:08.281Z,63.74
2023-03-28T19:05:08.174Z,63.74
2023-03-28T19:06:08.188Z,64.56
2023-03-28T19:07:08.159Z,65.59
2023-03-28T19:08:08.182Z,66.31
2023-03-28T19:09:08.161Z,66.51
2023-03-28T19:10:08.113Z,66.61
2023-03-28T19:11:08.090Z,67.06
2023-03-28T19:12:08.078Z,67.57
2023-03-28T19:13:08.087Z,68.60
2023-03-28T19:14:08.079Z,69.53
2023-03-28T19:15:08.039Z,70.04
2023-03-28T19:16:08.112Z,70.86
2023-03-28T19:17:08.079Z,71.79
2023-03-28T19:18:08.109Z,73.16
2023-03-28T19:19:08.001Z,73.78
2023-03-28T19:20:08.197Z,74.60
2023-03-28T19:21:08.027Z,76.49
2023-03-28T19:22:07.976Z,76.59
2023-03-28T19:23:08.016Z,77.00
2023-03-28T19:24:07.949Z,78.03
2023-03-28T19:25:07.927Z,79.30
2023-03-28T19:26:07.898Z,80.44
2023-03-28T19:27:07.893Z,80.33
2023-03-28T19:28:07.947Z,80.95
2023-03-28T19:29:07.844Z,81.81
2023-03-28T19:30:07.844Z,81.81
2023-03-28T19:31:08.065Z,82.95
2023-03-28T19:32:07.829Z,83.98
2023-03-28T19:33:07.918Z,84.80
2023-03-28T19:34:07.810Z,85.11
2023-03-28T19:35:07.859Z,84.59
2023-03-28T19:36:07.854Z,85.15
2023-03-28T19:37:07.768Z,85.36
2023-03-28T19:38:07.782Z,85.87
2023-03-28T19:39:07.731Z,86.18
2023-03-28T19:40:07.732Z,86.49
2023-03-28T19:41:10.050Z,86.80
2023-03-28T19:42:07.723Z,86.80
2023-03-28T19:43:07.770Z,86.90
2023-03-28T19:44:07.680Z,87.11
2023-03-28T19:45:07.704Z,87.52
2023-03-28T19:46:07.744Z,87.42
2023-03-28T19:47:07.702Z,87.52
2023-03-28T19:48:07.751Z,87.73
2023-03-28T19:49:07.671Z,88.04
2023-03-28T19:50:07.595Z,88.35
2023-03-28T19:51:07.591Z,88.49
2023-03-28T19:52:07.591Z,88.29
2023-03-28T19:53:07.587Z,88.59
2023-03-28T19:54:07.699Z,89.01
2023-03-28T19:55:07.546Z,89.42
2023-03-28T19:56:07.541Z,89.62
2023-03-28T19:57:08.438Z,89.73
2023-03-28T19:58:07.561Z,89.94
2023-03-28T19:59:07.495Z,90.25
2023-03-28T20:00:07.690Z,90.35
2023-03-28T20:01:07.466Z,90.45
2023-03-28T20:02:07.529Z,90.66
2023-03-28T20:03:07.500Z,90.76
2023-03-28T20:04:07.429Z,90.97
2023-03-28T20:05:07.412Z,91.17
2023-03-28T20:06:08.140Z,91.28
2023-03-28T20:07:07.447Z,91.48
2023-03-28T20:08:07.382Z,91.42
2023-03-28T20:09:07.381Z,91.73
2023-03-28T20:10:08.117Z,91.83
2023-03-28T20:11:07.326Z,91.94
2023-03-28T20:12:07.336Z,92.04
2023-03-28T20:13:07.344Z,92.14
2023-03-28T20:14:08.118Z,92.25
2023-03-28T20:15:07.279Z,92.25
2023-03-28T20:16:07.290Z,92.35
2023-03-28T20:17:07.280Z,92.46
2023-03-28T20:18:07.288Z,92.66
2023-03-28T20:19:08.622Z,92.76
2023-03-28T20:20:07.225Z,92.86
2023-03-28T20:21:07.220Z,92.86
2023-03-28T20:22:07.196Z,92.86
2023-03-28T20:23:07.173Z,92.97
2023-03-28T20:24:07.154Z,93.18
2023-03-28T20:25:07.169Z,93.18
2023-03-28T20:26:07.130Z,93.28
2023-03-28T20:27:07.094Z,93.38
2023-03-28T20:28:07.121Z,93.38
2023-03-28T20:29:07.080Z,93.28
2023-03-28T20:30:07.072Z,93.28
2023-03-28T20:31:07.127Z,93.38
2023-03-28T20:32:09.791Z,93.49
2023-03-28T20:33:07.069Z,93.59
2023-03-28T20:34:07.052Z,93.69
2023-03-28T20:35:06.985Z,93.69
2023-03-28T20:36:07.131Z,93.90
2023-03-28T20:37:07.010Z,93.90
2023-03-28T20:38:06.988Z,93.90
2023-03-28T20:39:06.976Z,93.90
2023-03-28T20:40:06.939Z,93.69
2023-03-28T20:41:06.941Z,93.69
2023-03-28T20:42:06.970Z,93.79
2023-03-28T20:43:06.911Z,94.00
2023-03-28T20:44:06.914Z,94.10
2023-03-28T20:45:06.867Z,94.10
2023-03-28T20:46:06.885Z,94.21
2023-03-28T20:47:06.879Z,94.21
2023-03-28T20:48:06.985Z,94.31
2023-03-28T20:49:06.801Z,94.42
2023-03-28T20:50:06.825Z,94.52
2023-03-28T20:51:06.795Z,94.72
2023-03-28T20:52:06.820Z,94.82
2023-03-28T20:53:06.782Z,94.82
2023-03-28T20:54:06.767Z,94.82
2023-03-28T20:55:06.759Z,94.93
2023-03-28T20:56:06.777Z,94.93
2023-03-28T20:57:06.752Z,94.93
2023-03-28T20:58:06.700Z,94.93
2023-03-28T20:59:06.702Z,94.93
2023-03-28T21:00:06.678Z,94.93
2023-03-28T21:01:06.736Z,94.93
2023-03-28T21:02:06.685Z,95.14
2023-03-28T21:03:06.676Z,95.24
2023-03-28T21:04:06.679Z,95.34
2023-03-28T21:05:06.630Z,95.34
2023-03-28T21:06:06.595Z,95.39
2023-03-28T21:07:06.572Z,95.34
2023-03-28T21:08:06.617Z,95.28
2023-03-28T21:09:06.620Z,95.28
2023-03-28T21:10:06.574Z,95.28
2023-03-28T21:11:06.547Z,95.18
2023-03-28T21:12:06.553Z,94.97
2023-03-28T21:13:06.519Z,94.87
2023-03-28T21:14:06.549Z,94.67
2023-03-28T21:15:06.492Z,94.56
2023-03-28T21:16:06.532Z,94.56
2023-03-28T21:17:06.471Z,94.56
2023-03-28T21:18:06.485Z,94.67
2023-03-28T21:19:06.449Z,94.67
2023-03-28T21:20:06.705Z,94.67
2023-03-28T21:21:06.418Z,94.67
2023-03-28T21:22:06.382Z,94.56
2023-03-28T21:23:06.401Z,94.46
2023-03-28T21:24:06.398Z,94.46
2023-03-28T21:25:06.397Z,94.25
2023-03-28T21:26:06.368Z,94.04
2023-03-28T21:27:06.344Z,93.84
2023-03-28T21:28:06.329Z,93.84
2023-03-28T21:29:06.300Z,93.84
2023-03-28T21:30:06.319Z,93.73
2023-03-28T21:31:06.289Z,93.73
2023-03-28T21:32:06.329Z,93.73
2023-03-28T21:33:06.271Z,93.73
2023-03-28T21:34:06.287Z,93.63
2023-03-28T21:35:06.237Z,93.43
2023-03-28T21:36:06.267Z,93.32
2023-03-28T21:37:06.226Z,93.43
2023-03-28T21:38:06.200Z,93.53
2023-03-28T21:39:06.215Z,93.63
2023-03-28T21:40:06.228Z,93.73
2023-03-28T21:41:06.151Z,93.63
2023-03-28T21:42:06.174Z,93.53
2023-03-28T21:43:06.136Z,93.53
2023-03-28T21:44:06.145Z,93.63
2023-03-28T21:45:06.089Z,93.73
2023-03-28T21:46:06.119Z,93.84
2023-03-28T21:47:06.054Z,93.84
2023-03-28T21:48:06.126Z,93.94
2023-03-28T21:49:06.026Z,93.94
2023-03-28T21:50:06.025Z,93.94
2023-03-28T21:51:06.287Z,94.04
2023-03-28T21:52:05.990Z,94.04